National Weather Service Raw Text Product

Displaying AFOS PIL: TAFDSM Received: 2018-02-14 11:20 UTC


764 
FTUS43 KDMX 141120
TAFDSM
TAF
KDSM 141120Z 1412/1512 19006KT P6SM FEW250
     FM141600 22011G17KT P6SM SCT200
     FM150500 23006KT 6SM BR BKN180
     FM150800 22004KT 4SM BR BKN080=